Time;durP1;ratioP1;P1;durP2;ratioP2;P2;SDS_P1;SDS_P2;PMS_P1;PMS_P2;Temp;Humidity;BMP_temperature;BMP_pressure;BME280_temperature;BME280_humidity;BME280_pressure;Samples;Min_cycle;Max_cycle;Signal;HPM_P1;HPM_P2
2021/07/24 00:01:49;;;;;;;14.52;9.82;;;20.50;81.70;;;;;;6249223;28;20045;-77
2021/07/24 00:04:52;;;;;;;16.40;11.05;;;20.60;81.50;;;;;;6252144;28;20046;-79
2021/07/24 00:07:54;;;;;;;13.10;11.73;;;20.60;82.00;;;;;;6252210;28;20188;-77
2021/07/24 00:10:56;;;;;;;14.73;11.93;;;20.60;81.60;;;;;;6250948;28;20520;-77
2021/07/24 00:13:58;;;;;;;14.10;10.63;;;20.60;81.30;;;;;;6251309;28;20053;-77
2021/07/24 00:17:00;;;;;;;16.40;11.10;;;20.60;81.20;;;;;;6248879;28;20056;-77
2021/07/24 00:20:04;;;;;;;14.73;12.95;;;20.50;81.50;;;;;;6255176;28;20132;-78
2021/07/24 00:23:11;;;;;;;13.25;11.40;;;20.50;82.10;;;;;;6257662;28;20056;-77
2021/07/24 00:26:13;;;;;;;14.98;11.30;;;20.40;82.50;;;;;;6253574;28;20076;-77
2021/07/24 00:29:15;;;;;;;15.25;11.57;;;20.50;82.90;;;;;;6248760;28;20060;-77
2021/07/24 00:32:17;;;;;;;19.15;11.10;;;20.40;83.00;;;;;;6252032;28;20123;-77
2021/07/24 00:35:20;;;;;;;14.57;12.82;;;20.30;82.70;;;;;;6250907;28;20065;-77
2021/07/24 00:38:22;;;;;;;14.80;12.07;;;20.30;82.80;;;;;;6250386;28;20139;-77
2021/07/24 00:41:30;;;;;;;14.20;10.57;;;20.30;82.50;;;;;;6251855;28;20187;-77
2021/07/24 00:44:33;;;;;;;13.45;10.77;;;20.30;82.30;;;;;;6248618;28;20157;-77
2021/07/24 00:47:40;;;;;;;13.65;12.02;;;20.40;82.50;;;;;;6246486;28;20199;-77
2021/07/24 00:50:46;;;;;;;18.63;10.38;;;20.40;82.40;;;;;;6248159;28;20181;-77
2021/07/24 00:53:48;;;;;;;14.73;11.23;;;20.40;82.10;;;;;;6250768;28;20139;-78
2021/07/24 00:56:51;;;;;;;15.90;10.55;;;20.40;82.00;;;;;;6247294;28;20148;-77
2021/07/24 00:59:53;;;;;;;13.02;11.10;;;20.40;82.10;;;;;;6247429;28;20296;-77
2021/07/24 01:02:54;;;;;;;14.15;10.43;;;20.40;82.50;;;;;;6248779;28;20529;-78
2021/07/24 01:05:59;;;;;;;17.50;11.02;;;20.40;82.80;;;;;;6254182;28;20053;-77
2021/07/24 01:09:01;;;;;;;14.38;11.25;;;20.40;82.80;;;;;;6250805;28;20080;-77
2021/07/24 01:12:04;;;;;;;13.40;10.32;;;20.40;82.80;;;;;;6248391;28;20129;-78
2021/07/24 01:15:07;;;;;;;16.13;10.98;;;20.30;82.60;;;;;;6251610;28;20408;-78
2021/07/24 01:18:09;;;;;;;17.02;11.23;;;20.20;83.10;;;;;;6251512;28;20057;-78
2021/07/24 01:21:14;;;;;;;15.60;11.00;;;20.20;82.80;;;;;;6251031;28;20065;-77
2021/07/24 01:24:17;;;;;;;14.13;12.32;;;20.20;82.60;;;;;;6250969;28;20105;-77
2021/07/24 01:27:19;;;;;;;15.85;11.57;;;20.20;82.70;;;;;;6249696;28;20041;-77
2021/07/24 01:30:21;;;;;;;15.23;11.80;;;20.20;82.80;;;;;;6248800;28;20049;-77
2021/07/24 01:33:23;;;;;;;13.07;10.85;;;20.20;82.80;;;;;;6252613;28;20197;-77
2021/07/24 01:36:25;;;;;;;15.77;12.10;;;20.20;83.20;;;;;;6249663;28;20542;-77
2021/07/24 01:39:29;;;;;;;14.05;11.90;;;20.20;83.30;;;;;;6252248;28;20042;-77
2021/07/24 01:42:31;;;;;;;16.08;12.00;;;20.20;83.00;;;;;;6250350;28;20097;-77
2021/07/24 01:45:33;;;;;;;18.65;12.60;;;20.20;83.00;;;;;;6250690;28;20541;-77
2021/07/24 01:48:38;;;;;;;15.43;11.85;;;20.40;82.70;;;;;;6252053;28;20104;-78
2021/07/24 01:55:12;;;;;;;12.88;11.57;;;20.40;82.90;;;;;;6255229;28;20045;-77
2021/07/24 01:58:18;;;;;;;15.98;12.48;;;20.30;83.40;;;;;;6254805;28;20060;-77
2021/07/24 02:01:22;;;;;;;15.15;10.63;;;20.30;84.20;;;;;;6252669;28;20146;-77
2021/07/24 02:04:28;;;;;;;12.30;10.65;;;20.20;84.90;;;;;;6253797;28;20132;-78
2021/07/24 02:07:31;;;;;;;21.35;13.73;;;20.20;84.90;;;;;;6253499;28;20435;-77
2021/07/24 02:10:36;;;;;;;17.13;12.65;;;20.20;85.20;;;;;;6253986;28;20525;-77
2021/07/24 02:13:38;;;;;;;14.13;11.57;;;20.20;85.60;;;;;;6257841;28;20266;-77
2021/07/24 02:16:41;;;;;;;15.15;12.73;;;20.10;86.10;;;;;;6253560;28;20109;-77
2021/07/24 02:19:44;;;;;;;14.38;11.20;;;20.10;86.50;;;;;;6251575;28;20081;-77
2021/07/24 02:22:46;;;;;;;16.30;11.50;;;20.10;87.20;;;;;;6252892;28;20096;-77
2021/07/24 02:25:49;;;;;;;13.77;11.02;;;20.10;87.20;;;;;;6253034;28;20259;-77
2021/07/24 02:28:51;;;;;;;17.77;12.70;;;20.10;87.30;;;;;;6274989;22;20045;-78
2021/07/24 02:31:55;;;;;;;15.50;10.52;;;20.00;87.60;;;;;;6250104;28;20045;-78
2021/07/24 02:34:57;;;;;;;13.00;11.52;;;19.90;87.90;;;;;;6249903;28;20468;-79
2021/07/24 02:37:59;;;;;;;16.27;11.68;;;19.90;88.70;;;;;;6250267;28;20132;-78
2021/07/24 02:41:03;;;;;;;15.18;11.45;;;19.90;88.30;;;;;;6250059;28;20054;-78
2021/07/24 02:44:05;;;;;;;17.27;12.90;;;19.80;88.20;;;;;;6250016;28;20069;-79
2021/07/24 02:47:07;;;;;;;16.05;12.32;;;19.80;88.60;;;;;;6249495;28;20053;-78
2021/07/24 02:50:09;;;;;;;16.02;11.10;;;19.70;89.10;;;;;;6249632;28;20092;-79
2021/07/24 02:53:11;;;;;;;15.40;11.98;;;19.70;89.30;;;;;;6249299;28;20493;-79
2021/07/24 02:56:14;;;;;;;15.38;11.43;;;19.70;89.70;;;;;;6248521;28;20049;-78
2021/07/24 02:59:16;;;;;;;18.65;11.77;;;19.70;90.00;;;;;;6248883;28;20139;-79
2021/07/24 03:02:19;;;;;;;18.25;11.73;;;19.60;90.20;;;;;;6247247;28;20502;-79
2021/07/24 03:05:20;;;;;;;14.50;12.27;;;19.70;90.40;;;;;;6249829;28;20119;-79
2021/07/24 03:08:22;;;;;;;16.08;12.63;;;19.70;90.60;;;;;;6247477;28;20526;-79
2021/07/24 03:11:25;;;;;;;14.13;11.70;;;19.70;90.60;;;;;;6248661;28;20067;-79
2021/07/24 03:14:27;;;;;;;13.07;11.60;;;19.80;90.50;;;;;;6249948;28;20196;-79
2021/07/24 03:17:30;;;;;;;15.45;11.00;;;19.80;90.40;;;;;;6250391;28;20103;-80
2021/07/24 03:20:31;;;;;;;17.30;11.73;;;19.90;90.30;;;;;;6249820;28;20067;-80
2021/07/24 03:23:33;;;;;;;17.23;12.10;;;20.00;89.70;;;;;;6250241;28;20124;-80
2021/07/24 03:26:36;;;;;;;15.52;11.88;;;20.00;89.40;;;;;;6249498;28;20180;-79
2021/07/24 03:29:38;;;;;;;15.60;12.15;;;20.00;89.40;;;;;;6250277;28;20073;-79
2021/07/24 03:32:40;;;;;;;16.13;12.02;;;20.10;88.70;;;;;;6249869;28;20136;-79
2021/07/24 03:35:42;;;;;;;12.98;11.02;;;20.20;88.20;;;;;;6249046;28;20124;-79
2021/07/24 03:38:44;;;;;;;14.35;10.73;;;20.10;88.30;;;;;;6249261;28;20533;-79
2021/07/24 03:41:47;;;;;;;15.10;10.48;;;20.10;88.70;;;;;;6249779;28;20388;-79
2021/07/24 03:44:49;;;;;;;13.27;11.05;;;20.00;89.00;;;;;;6250022;28;20096;-79
2021/07/24 03:47:50;;;;;;;18.05;12.25;;;19.90;89.90;;;;;;6248454;28;20052;-80
2021/07/24 03:50:52;;;;;;;16.35;13.65;;;19.80;90.50;;;;;;6250189;28;20060;-79
2021/07/24 03:53:54;;;;;;;15.60;11.77;;;19.70;90.90;;;;;;6250445;28;20056;-79
2021/07/24 03:56:57;;;;;;;18.85;12.52;;;19.70;90.80;;;;;;6251420;28;20510;-79
2021/07/24 04:00:02;;;;;;;16.83;13.45;;;19.60;91.10;;;;;;6249488;28;20049;-79
2021/07/24 04:03:04;;;;;;;16.40;12.10;;;19.80;91.10;;;;;;6248050;28;20049;-79
2021/07/24 04:06:08;;;;;;;16.65;11.68;;;19.70;91.00;;;;;;6250023;28;20053;-79
2021/07/24 04:09:10;;;;;;;15.43;12.30;;;19.70;91.00;;;;;;6249095;28;20052;-80
2021/07/24 04:12:13;;;;;;;17.40;12.45;;;19.70;91.10;;;;;;6249007;28;20045;-79
2021/07/24 04:15:15;;;;;;;19.35;11.95;;;19.70;91.10;;;;;;6249341;28;20132;-80
2021/07/24 04:18:23;;;;;;;15.15;11.43;;;19.60;91.10;;;;;;6248998;28;20049;-80
2021/07/24 04:21:25;;;;;;;21.40;13.63;;;19.60;91.40;;;;;;6249802;28;20050;-79
2021/07/24 04:24:26;;;;;;;16.52;12.68;;;19.60;91.60;;;;;;6248727;28;20045;-79
2021/07/24 04:27:30;;;;;;;14.85;12.82;;;19.50;91.80;;;;;;6247911;28;20461;-79
2021/07/24 04:30:33;;;;;;;14.98;12.35;;;19.50;92.00;;;;;;6249463;28;20056;-79
2021/07/24 04:33:35;;;;;;;17.95;13.25;;;19.40;92.10;;;;;;6249289;28;20168;-80
2021/07/24 04:36:37;;;;;;;15.48;12.63;;;19.40;92.40;;;;;;6248551;28;20598;-79
2021/07/24 04:39:39;;;;;;;17.27;13.80;;;19.30;92.70;;;;;;6248978;28;20049;-79
2021/07/24 04:42:42;;;;;;;15.23;13.32;;;19.30;92.90;;;;;;6249039;28;20050;-80
2021/07/24 04:45:45;;;;;;;19.45;13.40;;;19.30;93.20;;;;;;6249674;28;20136;-80
2021/07/24 04:48:46;;;;;;;16.70;13.15;;;19.30;93.40;;;;;;6249429;28;20045;-79
2021/07/24 04:51:48;;;;;;;19.85;13.20;;;19.40;93.40;;;;;;6248928;28;20507;-80
2021/07/24 04:54:50;;;;;;;13.82;12.40;;;19.60;93.10;;;;;;6249614;28;20050;-79
2021/07/24 04:57:53;;;;;;;16.63;12.52;;;19.70;92.80;;;;;;6250119;28;20139;-79
2021/07/24 05:00:55;;;;;;;22.60;13.32;;;19.80;92.40;;;;;;6248364;28;20074;-79
2021/07/24 05:03:58;;;;;;;13.45;12.00;;;19.80;92.10;;;;;;6247034;28;20540;-79
2021/07/24 05:07:00;;;;;;;17.08;12.95;;;19.80;91.80;;;;;;6247409;28;20191;-78
2021/07/24 05:10:08;;;;;;;18.30;13.43;;;19.90;91.80;;;;;;6248906;28;20133;-79
2021/07/24 05:13:11;;;;;;;14.50;13.00;;;20.00;91.60;;;;;;6247992;28;20046;-79
2021/07/24 05:16:13;;;;;;;18.58;13.88;;;20.10;91.50;;;;;;6247516;28;20049;-79
2021/07/24 05:19:14;;;;;;;18.70;11.65;;;20.20;91.00;;;;;;6247638;28;20124;-80
2021/07/24 05:22:16;;;;;;;16.73;12.43;;;20.50;90.20;;;;;;6248107;28;20131;-79
2021/07/24 05:25:18;;;;;;;14.48;12.93;;;20.70;88.80;;;;;;6249605;28;20054;-79
2021/07/24 05:28:21;;;;;;;15.88;12.13;;;20.80;87.90;;;;;;6249453;28;20117;-79
2021/07/24 05:31:25;;;;;;;17.88;11.38;;;21.00;86.60;;;;;;6252754;28;20128;-79
2021/07/24 05:34:27;;;;;;;15.70;11.85;;;21.10;85.80;;;;;;6252950;28;20056;-79
2021/07/24 05:37:28;;;;;;;14.63;11.95;;;21.20;84.50;;;;;;6253594;28;20076;-79
2021/07/24 05:40:30;;;;;;;14.82;13.32;;;21.30;84.00;;;;;;6252353;28;20119;-80
2021/07/24 05:43:33;;;;;;;13.65;11.48;;;21.30;83.40;;;;;;6252194;28;20052;-80
2021/07/24 05:46:35;;;;;;;14.82;12.23;;;21.20;83.60;;;;;;6252037;28;20128;-80
2021/07/24 05:49:37;;;;;;;18.75;12.02;;;21.10;83.00;;;;;;6251516;28;20084;-79
2021/07/24 05:52:39;;;;;;;11.48;10.27;;;21.10;83.60;;;;;;6250478;28;20072;-79
2021/07/24 05:55:41;;;;;;;17.80;12.23;;;21.00;84.10;;;;;;6250685;28;20179;-81
2021/07/24 05:58:44;;;;;;;14.05;12.48;;;21.00;84.50;;;;;;6251261;28;20128;-80
2021/07/24 06:01:46;;;;;;;17.40;12.23;;;20.90;84.80;;;;;;6251492;28;20053;-79
2021/07/24 06:04:50;;;;;;;17.23;12.55;;;20.80;85.40;;;;;;6239034;28;20045;-79
2021/07/24 06:07:52;;;;;;;15.35;13.30;;;20.80;86.00;;;;;;6250909;28;20041;-79
2021/07/24 06:10:53;;;;;;;14.63;13.00;;;20.80;86.60;;;;;;6251220;28;20132;-79
2021/07/24 06:13:58;;;;;;;14.23;11.93;;;20.70;87.40;;;;;;6251837;28;20136;-80
2021/07/24 06:17:00;;;;;;;15.43;12.10;;;20.70;88.20;;;;;;6250432;28;20219;-79
2021/07/24 06:20:02;;;;;;;14.68;12.45;;;20.70;89.50;;;;;;6250677;28;20045;-79
2021/07/24 06:23:04;;;;;;;16.27;13.02;;;20.80;90.10;;;;;;6250784;28;20103;-79
2021/07/24 06:26:06;;;;;;;17.13;13.10;;;20.80;90.30;;;;;;6250846;28;20179;-80
2021/07/24 06:29:09;;;;;;;17.02;13.85;;;20.80;90.70;;;;;;6250900;28;20077;-79
2021/07/24 06:32:11;;;;;;;17.40;15.60;;;20.80;91.10;;;;;;6250689;28;20072;-79
2021/07/24 06:35:13;;;;;;;17.52;14.05;;;20.80;91.30;;;;;;6250857;28;20076;-80
2021/07/24 06:38:15;;;;;;;20.45;15.57;;;20.90;91.50;;;;;;6251099;28;20159;-80
2021/07/24 06:41:16;;;;;;;18.80;14.27;;;20.90;91.60;;;;;;6250832;28;20088;-79
2021/07/24 06:44:20;;;;;;;18.58;13.68;;;21.00;91.30;;;;;;6250400;28;20053;-80
2021/07/24 06:47:22;;;;;;;17.95;13.43;;;21.00;91.10;;;;;;6250259;28;20061;-79
2021/07/24 06:50:25;;;;;;;17.10;13.38;;;21.00;91.20;;;;;;6249451;28;20136;-79
2021/07/24 06:53:26;;;;;;;20.85;15.23;;;21.10;91.40;;;;;;6249621;28;20510;-79
2021/07/24 06:56:28;;;;;;;18.98;15.02;;;21.20;91.40;;;;;;6248352;28;20202;-80
2021/07/24 06:59:32;;;;;;;18.50;13.88;;;21.30;91.10;;;;;;6249562;28;20119;-78
2021/07/24 07:02:33;;;;;;;17.77;14.25;;;21.30;90.90;;;;;;6250248;28;20065;-79
2021/07/24 07:05:35;;;;;;;19.08;13.48;;;21.40;90.60;;;;;;6245577;28;20055;-78
2021/07/24 07:08:37;;;;;;;19.77;15.20;;;21.40;90.30;;;;;;6245779;28;20514;-78
2021/07/24 07:11:39;;;;;;;17.88;14.35;;;21.50;90.30;;;;;;6248255;28;20139;-78
2021/07/24 07:14:42;;;;;;;13.95;12.00;;;21.50;90.10;;;;;;6248378;28;20111;-78
2021/07/24 07:17:44;;;;;;;19.27;13.07;;;21.60;90.00;;;;;;6246482;28;20102;-78
2021/07/24 07:20:47;;;;;;;21.55;13.77;;;21.70;90.00;;;;;;6251455;28;20095;-78
2021/07/24 07:23:50;;;;;;;13.77;12.18;;;21.70;90.00;;;;;;6249088;28;20191;-78
2021/07/24 07:26:52;;;;;;;22.55;13.90;;;21.70;90.10;;;;;;6248089;28;20095;-78
2021/07/24 07:29:55;;;;;;;18.20;13.18;;;21.70;90.00;;;;;;6248743;28;20087;-78
2021/07/24 07:32:57;;;;;;;19.65;13.13;;;21.80;90.10;;;;;;6248615;28;20045;-78
2021/07/24 07:35:59;;;;;;;20.45;13.70;;;21.90;90.20;;;;;;6250122;28;20132;-78
2021/07/24 07:39:01;;;;;;;15.73;13.02;;;22.00;90.00;;;;;;6249842;28;20049;-78
2021/07/24 07:42:03;;;;;;;21.33;13.52;;;22.10;89.10;;;;;;6251554;28;20127;-78
2021/07/24 07:45:07;;;;;;;22.85;13.18;;;22.20;88.50;;;;;;6252098;28;20069;-79
2021/07/24 07:48:09;;;;;;;16.80;14.52;;;22.30;89.00;;;;;;6250515;28;20065;-79
2021/07/24 07:51:11;;;;;;;18.60;14.43;;;22.30;89.40;;;;;;6205594;28;20143;-78
2021/07/24 07:54:13;;;;;;;18.63;12.38;;;22.40;89.80;;;;;;6247941;28;20129;-78
2021/07/24 07:57:15;;;;;;;14.95;13.27;;;22.60;89.20;;;;;;6248738;28;20126;-79
2021/07/24 08:00:19;;;;;;;18.33;14.20;;;22.70;89.30;;;;;;6248423;28;20067;-78
2021/07/24 08:03:24;;;;;;;18.95;14.30;;;23.00;88.20;;;;;;6250305;28;20060;-79
2021/07/24 08:06:26;;;;;;;14.50;13.00;;;23.20;86.50;;;;;;6242870;28;20534;-78
2021/07/24 08:09:28;;;;;;;17.33;13.50;;;23.60;84.60;;;;;;6230848;28;20553;-79
2021/07/24 08:12:29;;;;;;;18.48;12.70;;;23.90;82.20;;;;;;6225580;28;20136;-79
2021/07/24 08:15:35;;;;;;;16.92;13.23;;;24.00;80.20;;;;;;6225614;28;20046;-79
2021/07/24 08:18:36;;;;;;;16.58;12.50;;;24.10;79.30;;;;;;6224927;28;20057;-79
2021/07/24 08:21:38;;;;;;;17.48;13.10;;;24.20;78.60;;;;;;6226710;28;20130;-79
2021/07/24 08:24:40;;;;;;;14.98;13.07;;;24.40;77.50;;;;;;6224765;28;20458;-78
2021/07/24 08:27:42;;;;;;;17.02;12.25;;;24.60;76.40;;;;;;6224237;28;20081;-79
2021/07/24 08:30:47;;;;;;;15.43;13.52;;;24.90;76.30;;;;;;6264416;22;20136;-76
2021/07/24 08:33:48;;;;;;;14.98;13.00;;;25.40;74.30;;;;;;6246954;28;20049;-76
2021/07/24 08:36:50;;;;;;;21.40;12.77;;;26.10;71.90;;;;;;6246236;28;20102;-76
2021/07/24 08:39:52;;;;;;;16.70;12.55;;;26.70;69.60;;;;;;6246164;28;20069;-76
2021/07/24 08:42:54;;;;;;;16.67;12.55;;;27.10;68.20;;;;;;6246490;28;20042;-76
2021/07/24 08:45:58;;;;;;;18.02;12.38;;;27.40;66.50;;;;;;6246514;28;20136;-76
2021/07/24 08:49:00;;;;;;;13.35;11.68;;;27.60;65.50;;;;;;6246017;28;20115;-76
2021/07/24 08:52:03;;;;;;;13.32;12.02;;;27.90;64.80;;;;;;6245979;28;20041;-76
2021/07/24 08:55:07;;;;;;;13.10;11.43;;;28.20;63.40;;;;;;6246241;28;20102;-76
2021/07/24 08:58:14;;;;;;;14.02;11.77;;;28.50;62.00;;;;;;6246135;28;20666;-76
2021/07/24 09:01:20;;;;;;;14.00;10.95;;;28.70;60.80;;;;;;6246193;28;20056;-76
2021/07/24 09:04:23;;;;;;;12.23;11.02;;;29.00;59.20;;;;;;6249480;28;20049;-76
2021/07/24 09:07:29;;;;;;;11.63;10.43;;;29.20;58.60;;;;;;6249444;28;20045;-76
2021/07/24 09:10:31;;;;;;;12.88;10.43;;;29.40;58.40;;;;;;6242993;28;20079;-77
2021/07/24 09:13:33;;;;;;;14.63;11.88;;;29.50;57.80;;;;;;6260087;28;20450;-78
2021/07/24 09:16:38;;;;;;;13.23;11.63;;;29.50;57.00;;;;;;6257714;28;20136;-76
2021/07/24 09:19:41;;;;;;;13.30;10.60;;;29.50;56.80;;;;;;6250972;28;20192;-76
2021/07/24 09:22:44;;;;;;;15.45;10.77;;;29.40;55.60;;;;;;6250763;28;20049;-76
2021/07/24 09:25:46;;;;;;;11.73;9.50;;;29.50;55.30;;;;;;6250669;28;20054;-77
2021/07/24 09:29:12;;;;;;;18.25;9.02;;;30.00;54.90;;;;;;6250165;28;20049;-77
2021/07/24 09:32:15;;;;;;;11.27;9.10;;;30.30;53.40;;;;;;6250467;28;20045;-76
2021/07/24 09:35:35;;;;;;;10.32;9.35;;;30.70;53.20;;;;;;6250163;28;20706;-76
2021/07/24 09:38:38;;;;;;;11.40;9.88;;;31.20;53.10;;;;;;6250463;28;20128;-76
2021/07/24 09:41:42;;;;;;;10.45;9.45;;;31.50;51.20;;;;;;6250881;28;20045;-77
2021/07/24 09:44:44;;;;;;;11.40;8.70;;;31.50;51.30;;;;;;6250033;28;20111;-76
2021/07/24 09:47:47;;;;;;;12.80;9.15;;;31.50;50.50;;;;;;6249941;28;20125;-76
2021/07/24 09:50:51;;;;;;;12.52;10.20;;;31.70;50.70;;;;;;6248782;28;20474;-77
2021/07/24 09:53:53;;;;;;;14.65;9.38;;;31.50;50.50;;;;;;6250327;28;20554;-76
2021/07/24 09:56:55;;;;;;;12.05;10.00;;;31.50;51.30;;;;;;6249612;28;20099;-76
2021/07/24 10:00:19;;;;;;;13.13;8.02;;;31.70;49.90;;;;;;6249415;28;20191;-76
2021/07/24 10:03:29;;;;;;;10.70;8.85;;;31.70;50.20;;;;;;6249886;28;20474;-77
2021/07/24 10:06:31;;;;;;;11.85;8.43;;;32.00;49.70;;;;;;6249362;28;20056;-77
2021/07/24 10:09:34;;;;;;;10.73;8.05;;;32.10;48.70;;;;;;6245588;28;20047;-76
2021/07/24 10:12:36;;;;;;;8.65;7.43;;;32.30;48.80;;;;;;6249160;28;20052;-77
2021/07/24 10:15:40;;;;;;;15.95;7.90;;;32.40;47.70;;;;;;6244827;28;20172;-76
2021/07/24 10:18:44;;;;;;;7.80;7.05;;;32.60;47.50;;;;;;6249252;28;20060;-77
2021/07/24 10:21:46;;;;;;;9.60;7.63;;;32.80;48.10;;;;;;6249060;28;20100;-76
2021/07/24 10:24:47;;;;;;;8.50;7.57;;;33.00;46.90;;;;;;6249166;28;20525;-76
2021/07/24 10:27:51;;;;;;;10.75;8.23;;;32.90;47.40;;;;;;6248444;28;20409;-76
2021/07/24 10:30:56;;;;;;;9.32;8.43;;;32.80;46.80;;;;;;6248948;28;20048;-76
2021/07/24 10:34:03;;;;;;;9.27;7.47;;;32.80;47.20;;;;;;6249083;28;20141;-76
2021/07/24 10:37:38;;;;;;;9.88;7.10;;;32.80;46.90;;;;;;6248516;28;20094;-76
2021/07/24 10:40:40;;;;;;;11.90;8.32;;;32.70;46.40;;;;;;6248090;28;20407;-76
2021/07/24 10:43:58;;;;;;;12.32;8.43;;;32.70;47.20;;;;;;6248057;28;20124;-76
2021/07/24 10:47:16;;;;;;;9.55;7.40;;;32.80;47.90;;;;;;6247426;28;20049;-76
2021/07/24 10:50:19;;;;;;;11.20;8.10;;;33.00;47.00;;;;;;6248365;28;20049;-76
2021/07/24 10:53:22;;;;;;;9.13;7.30;;;33.10;47.40;;;;;;6248791;28;20049;-77
2021/07/24 10:56:37;;;;;;;8.52;6.72;;;33.20;46.50;;;;;;6247869;28;20047;-76
2021/07/24 10:59:38;;;;;;;15.05;7.68;;;33.40;46.50;;;;;;6248368;28;20053;-76
2021/07/24 11:02:46;;;;;;;7.53;5.78;;;33.40;46.90;;;;;;6246668;28;20572;-77
2021/07/24 11:05:49;;;;;;;6.72;6.13;;;33.50;46.80;;;;;;6248712;28;20042;-77
2021/07/24 11:09:11;;;;;;;8.55;7.43;;;33.30;44.70;;;;;;6243732;28;20172;-76
2021/07/24 11:12:14;;;;;;;14.05;6.82;;;32.90;46.60;;;;;;6244447;28;20045;-75
2021/07/24 11:15:18;;;;;;;6.90;6.18;;;32.60;46.60;;;;;;6247967;28;20045;-75
2021/07/24 11:18:22;;;;;;;6.50;5.80;;;32.20;46.90;;;;;;6233947;28;20050;-76
2021/07/24 11:21:57;;;;;;;6.72;5.65;;;32.00;47.30;;;;;;6206600;28;20054;-76
2021/07/24 11:25:35;;;;;;;8.18;5.93;;;32.10;47.70;;;;;;6221265;28;20654;-76
2021/07/24 11:28:47;;;;;;;7.25;6.35;;;32.00;47.80;;;;;;6219147;28;20057;-76
2021/07/24 11:31:51;;;;;;;7.68;5.93;;;32.00;48.50;;;;;;6223306;28;20153;-76
2021/07/24 11:34:58;;;;;;;5.97;5.38;;;31.90;49.00;;;;;;6222484;28;20191;-75
2021/07/24 11:38:00;;;;;;;6.45;4.65;;;31.80;49.60;;;;;;6223518;28;20259;-76
2021/07/24 11:41:04;;;;;;;4.05;3.03;;;31.80;48.30;;;;;;6222572;28;20045;-76
2021/07/24 11:44:08;;;;;;;4.60;3.22;;;31.60;45.90;;;;;;6222861;28;20046;-76
2021/07/24 11:47:09;;;;;;;9.43;3.08;;;31.50;45.90;;;;;;6222216;28;20050;-76
2021/07/24 11:50:18;;;;;;;5.57;2.83;;;31.40;46.30;;;;;;6222541;28;20081;-76
2021/07/24 11:53:20;;;;;;;12.27;2.92;;;31.40;46.50;;;;;;6222852;28;20473;-76
2021/07/24 11:56:23;;;;;;;4.97;3.10;;;31.60;45.50;;;;;;6222160;28;20181;-76
2021/07/24 11:59:27;;;;;;;5.70;3.47;;;31.80;45.90;;;;;;6222306;28;20143;-76
2021/07/24 12:02:29;;;;;;;6.35;3.78;;;32.00;45.80;;;;;;6222579;28;20053;-76
2021/07/24 12:05:31;;;;;;;5.20;3.13;;;32.20;47.20;;;;;;6222607;28;20518;-77
2021/07/24 12:08:33;;;;;;;4.90;3.80;;;32.50;47.20;;;;;;6221883;28;20605;-77
2021/07/24 12:11:36;;;;;;;4.22;3.53;;;32.50;46.20;;;;;;6212700;28;20181;-77
2021/07/24 12:14:39;;;;;;;7.35;3.70;;;32.60;46.70;;;;;;6222466;28;20132;-77
2021/07/24 12:17:41;;;;;;;5.47;4.03;;;32.80;45.40;;;;;;6222288;28;20050;-77
2021/07/24 12:20:43;;;;;;;7.50;4.10;;;33.00;46.40;;;;;;6222220;28;20452;-77
2021/07/24 12:23:56;;;;;;;3.92;3.30;;;33.30;45.70;;;;;;6221882;28;20078;-76
2021/07/24 12:27:08;;;;;;;7.00;3.80;;;33.40;44.70;;;;;;6221729;28;20041;-77
2021/07/24 12:30:25;;;;;;;17.20;4.35;;;33.30;44.80;;;;;;6222281;28;20089;-76
2021/07/24 12:33:42;;;;;;;7.30;3.33;;;33.10;45.10;;;;;;6222368;28;20046;-75
2021/07/24 12:36:51;;;;;;;5.97;3.92;;;32.80;45.20;;;;;;6221411;28;20046;-76
2021/07/24 12:39:53;;;;;;;7.50;4.05;;;32.60;45.30;;;;;;6221443;28;20046;-77
2021/07/24 12:42:55;;;;;;;8.40;3.92;;;32.60;46.10;;;;;;6221811;28;20045;-76
2021/07/24 12:46:14;;;;;;;5.15;4.18;;;32.50;45.20;;;;;;6221971;28;20042;-76
2021/07/24 12:49:35;;;;;;;6.05;4.18;;;32.50;46.30;;;;;;6222078;28;20041;-76
2021/07/24 12:52:44;;;;;;;4.55;3.40;;;32.50;46.00;;;;;;6221641;28;20504;-76
2021/07/24 12:55:45;;;;;;;5.05;3.00;;;32.40;46.90;;;;;;6221288;28;20418;-76
2021/07/24 12:58:47;;;;;;;6.55;2.97;;;32.40;45.70;;;;;;6221840;28;20128;-76
2021/07/24 13:01:51;;;;;;;5.60;3.20;;;32.50;47.00;;;;;;6221699;28;20141;-76
2021/07/24 13:04:54;;;;;;;6.53;3.85;;;32.70;46.00;;;;;;6221137;28;20137;-76
2021/07/24 13:07:58;;;;;;;6.72;4.90;;;32.80;45.50;;;;;;6221296;28;20056;-76
2021/07/24 13:11:01;;;;;;;3.80;2.85;;;32.90;44.70;;;;;;6220220;28;20530;-76
2021/07/24 13:14:02;;;;;;;5.25;4.15;;;33.20;44.50;;;;;;6220899;28;20056;-74
2021/07/24 13:17:06;;;;;;;6.93;4.38;;;33.20;45.10;;;;;;6221125;28;20046;-74
2021/07/24 13:20:08;;;;;;;5.30;3.65;;;33.10;45.10;;;;;;6221531;28;20464;-74
2021/07/24 13:23:10;;;;;;;6.53;3.55;;;33.00;44.90;;;;;;6221154;28;20091;-74
2021/07/24 13:29:32;;;;;;;4.70;4.18;;;32.90;44.70;;;;;;6221546;28;20050;-75
2021/07/24 13:32:35;;;;;;;6.10;3.88;;;32.90;44.00;;;;;;6221014;28;20057;-75
2021/07/24 13:35:37;;;;;;;5.40;4.60;;;32.90;44.90;;;;;;6220516;28;20045;-74
2021/07/24 13:38:39;;;;;;;6.00;4.03;;;33.10;44.90;;;;;;6221014;28;20054;-74
2021/07/24 13:41:41;;;;;;;6.13;3.92;;;33.10;45.30;;;;;;6221477;28;20137;-74
2021/07/24 13:44:43;;;;;;;7.20;4.38;;;33.00;45.60;;;;;;6221313;28;20177;-74
2021/07/24 13:47:46;;;;;;;5.93;4.60;;;33.00;46.10;;;;;;6220672;28;20080;-74
2021/07/24 13:50:48;;;;;;;6.07;5.15;;;33.10;45.80;;;;;;6225099;28;20079;-74
2021/07/24 13:53:50;;;;;;;5.78;5.25;;;33.10;46.00;;;;;;6225728;28;20081;-75
2021/07/24 13:56:51;;;;;;;7.43;5.95;;;33.10;46.10;;;;;;6224818;28;20086;-74
2021/07/24 13:59:53;;;;;;;12.88;5.68;;;32.90;46.70;;;;;;6225409;28;20049;-75
2021/07/24 14:02:56;;;;;;;5.93;4.90;;;32.80;47.30;;;;;;6225193;28;20049;-75
2021/07/24 14:06:00;;;;;;;5.90;5.13;;;32.80;47.60;;;;;;6225255;28;20463;-75
2021/07/24 14:09:01;;;;;;;10.20;5.97;;;32.60;47.80;;;;;;6224939;28;20049;-75
2021/07/24 14:12:04;;;;;;;10.23;5.35;;;32.50;47.80;;;;;;6221750;28;20117;-74
2021/07/24 14:15:07;;;;;;;7.97;5.18;;;32.30;47.90;;;;;;6208320;28;20082;-74
2021/07/24 14:18:10;;;;;;;7.53;5.20;;;32.10;48.40;;;;;;6201024;28;20110;-75
2021/07/24 14:21:17;;;;;;;7.63;5.47;;;31.80;48.70;;;;;;6200585;28;20054;-75
2021/07/24 14:24:19;;;;;;;;;;;31.60;49.40;;;;;;6201036;28;20527;-75
2021/07/24 14:27:21;;;;;;;7.72;4.22;;;31.60;49.40;;;;;;6200009;28;19933;-75
2021/07/24 14:30:23;;;;;;;9.30;3.78;;;31.40;49.50;;;;;;6225827;22;20137;-78
2021/07/24 14:33:27;;;;;;;4.38;3.22;;;31.50;48.80;;;;;;6206392;28;20086;-78
2021/07/24 14:36:29;;;;;;;6.22;3.90;;;31.50;48.60;;;;;;6203230;28;20047;-78
2021/07/24 14:39:31;;;;;;;5.88;4.57;;;31.40;48.70;;;;;;6202234;28;20055;-77
2021/07/24 14:42:33;;;;;;;7.50;3.58;;;31.40;48.20;;;;;;6206158;28;20125;-79
2021/07/24 14:45:38;;;;;;;7.90;3.33;;;31.30;49.20;;;;;;6205810;28;20131;-79
2021/07/24 14:48:41;;;;;;;7.45;4.63;;;31.30;48.70;;;;;;6200622;28;20042;-77
2021/07/24 14:51:43;;;;;;;4.97;3.50;;;31.20;48.80;;;;;;6201721;28;20105;-78
2021/07/24 14:54:45;;;;;;;5.80;4.43;;;31.20;48.60;;;;;;6203366;28;20125;-79
2021/07/24 14:57:47;;;;;;;5.65;3.40;;;31.10;49.00;;;;;;6203794;28;20078;-78
2021/07/24 15:00:48;;;;;;;6.55;4.22;;;31.10;49.30;;;;;;6205395;28;20551;-79
2021/07/24 15:03:52;;;;;;;6.70;4.00;;;31.00;48.70;;;;;;6206507;28;20563;-80
2021/07/24 15:06:54;;;;;;;4.75;4.22;;;31.00;49.00;;;;;;6205621;28;20070;-80
2021/07/24 15:09:55;;;;;;;5.97;4.45;;;30.90;48.70;;;;;;6206755;28;20663;-79
2021/07/24 15:12:57;;;;;;;7.25;4.13;;;30.90;49.10;;;;;;6203569;28;20106;-79
2021/07/24 15:15:59;;;;;;;4.75;2.85;;;30.90;48.90;;;;;;6205261;28;20045;-79
2021/07/24 15:19:02;;;;;;;5.20;3.13;;;30.90;48.50;;;;;;6206503;28;20136;-79
2021/07/24 15:22:04;;;;;;;5.85;3.88;;;30.80;48.80;;;;;;6206646;28;20450;-79
2021/07/24 15:25:07;;;;;;;5.43;3.88;;;30.80;48.40;;;;;;6205592;28;20082;-79
2021/07/24 15:28:09;;;;;;;4.05;3.22;;;30.70;48.20;;;;;;6204750;28;20608;-80
2021/07/24 15:31:10;;;;;;;4.25;3.58;;;30.70;48.80;;;;;;6205430;28;20109;-78
2021/07/24 15:34:14;;;;;;;4.05;3.35;;;30.90;48.40;;;;;;6204739;28;20074;-79
2021/07/24 15:37:16;;;;;;;4.90;3.45;;;30.90;48.20;;;;;;6203724;28;20634;-79
2021/07/24 15:40:20;;;;;;;6.03;3.70;;;30.80;48.60;;;;;;6204829;28;20077;-79
2021/07/24 15:43:23;;;;;;;5.90;3.45;;;30.70;47.70;;;;;;6199897;28;20050;-78
2021/07/24 15:46:25;;;;;;;8.25;4.07;;;30.70;47.70;;;;;;6200503;28;20049;-77